Terminal Aerodrome Forecast
Issued by NWS Wakefield, VA

Current Version | Previous Version | Text Only | Print | Product List | Glossary On
Versions: 1 2 3 4 5 6 7 8 9 10 11 12 13 14 15 16 17
497
FTUS41 KAKQ 120520
TAFORF
TAF
KORF 120520Z 1206/1306 36006KT P6SM BKN250
     FM121200 03005KT P6SM OVC100
     FM121800 04006KT 2SM -SN BR OVC025
     FM122100 05007KT 1/2SM SN FG OVC012
     FM130200 12004KT 5SM BR OVC025=

USA.gov is the U.S. government's official web portal to all federal, state and local government web resources and services.